Aviation Digital Data Service (ADDS)

Output produced by METARs form (0431 UTC 26 July 2016)
found at http://aviationweather.gov/adds/metars/
 
KSWF 260244Z 2603/2706 26005KT P6SM FEW050 BKN250 
     FM260500 VRB03KT 6SM BR FEW020 SCT250 
     TEMPO 2607/2611 3SM BR 
     FM261300 28007KT P6SM SCT250 
     FM261800 30011G19KT P6SM SCT050 SCT250 
     FM262300 33007KT P6SM FEW050 FEW250 AMD NOT SKED